Login to view Products
 
Monday, December 06, 2021 (12:28 UTC) 12
Fujairah International Airport
ICAO: OMFJ
IATA: FJR
  • METAR OMFJ 061200Z 09006KT 050V120 CAVOK 26/17 Q1016 A3000=
  • TAF OMFJ 061100Z 0612/0718 09006KT 8000 NSC BECMG 0614/0616 VRB03KT BECMG 0620/2622 29006KT BECMG 0707/0709 09008KT BECMG 0714/0716 VRB03KT=
D:\Input Parser\Destinations\Final\11\OMFJL12181100989225431.txt
2